Aérodrome :
LOGIN :

S'inscrire | Disclaimer

   EN    FR    IT 

 










Légende :    VFR   VFR Marginal   IFR   IFR Intensif   IFR Très Intensif
Visi : 
Plafond : 
>= 8 km
>= 3000ft
5 à 8 km
1000 à 3000 ft
1500m à 5 km
500 à 1000 ft
800 à 1500m
200 à 500 ft
< 800m
< 200 ft
Symboles :   Orages  Brouillard  Fortes neiges  Fortes précipitations  Vent > 20 kt
SIGMETs :   Divers  Orages  Givrage  Turbulence  Onde Orograph.  Cendres Volcan.






- Altitude de l'aérodrome : 160 ft
- Code IATA : LRT


LFRH - Lorient Lann Bihoue

DERNIER METAR :
  • 170100Z AUTO 04003KT 9999 OVC013 14/12 Q1009 TEMPO 4000 -RA OVC009

METARs EXPIRÉS :
  • 170030Z AUTO 00000KT 9000 -DZ BKN013 OVC022 14/12 Q1009 TEMPO 4000 -RA OVC009
  • 170000Z AUTO 00000KT 5000 RA BR FEW014 BKN021 OVC035 14/12 Q1009 TEMPO OVC009 BECMG NSW
  • 162330Z AUTO VRB02KT 9999 BKN023 OVC034 14/13 Q1009 TEMPO OVC009
  • 162300Z AUTO 12003KT 9999 BKN024 BKN037 BKN052 14/13 Q1009 TEMPO OVC009
  • 162230Z AUTO 00000KT 9999 BKN032 OVC060 14/12 Q1009 TEMPO OVC009
  • 162200Z AUTO 18002KT 9999 BKN034 OVC056 15/12 Q1009 NOSIG
  • 162130Z AUTO 24002KT 9999 SCT038 SCT046 OVC058 15/12 Q1009 NOSIG
  • 162100Z AUTO 21003KT 9999 BKN042 BKN049 OVC056 14/12 Q1009 NOSIG
  • 162030Z AUTO 25003KT 9999 FEW047 BKN056 OVC066 15/12 Q1009 NOSIG

TAF AMD TAF LFRH
Valide du 17 à 00h jusqu'au 18 à 00h UTC


170008Z 1700/1724 VRB05KT 9999 OVC020
TEMPO 1700/1708 4000 -RA OVC009
TEMPO 1703/1708 2000 RADZ OVC003
TEMPO 1708/1713 4000 SHRA BKN009TCU
BECMG 1710/1712 15010KT BKN005
TEMPO 1713/1718 4000 RA
PROB40
TEMPO 1713/1718 BKN003
TEMPO 1718/1724 4000 -DZ
BECMG 1721/1723 05005KT



MET'MAP, la Météo Aéronautique d'un coup d'oeil ! - Copyright ORBIFLY Décembre 2007 - Disclaimer

ORBIFLY MET'MAP TEAM :

Programmation & Développement : Alexandra Zaïnal
Sur une idée originale de : Baudouin d'Aumeries
Soutien technique & logistique : Manuel Goepfert
Assistance : Marc-Olivier Méhu




SOURCES & CREDITS :

   NOAA